createdAt,value
2022-07-26T00:01:02.761Z,100282.00
2022-07-26T00:03:30.757Z,100278.72
2022-07-26T00:05:58.801Z,100269.75
2022-07-26T00:08:26.833Z,100260.59
2022-07-26T00:10:54.792Z,100255.28
2022-07-26T00:13:24.119Z,100261.59
2022-07-26T00:15:56.381Z,100254.66
2022-07-26T00:18:24.392Z,100244.03
2022-07-26T00:20:52.808Z,100230.94
2022-07-26T00:23:23.627Z,100232.75
2022-07-26T00:25:51.610Z,100234.75
2022-07-26T00:28:19.733Z,100231.47
2022-07-26T00:30:49.067Z,100228.66
2022-07-26T00:33:17.030Z,100208.75
2022-07-26T00:35:45.105Z,100203.25
2022-07-26T00:38:13.019Z,100193.84
2022-07-26T00:40:40.976Z,100198.31
2022-07-26T00:43:08.876Z,100188.53
2022-07-26T00:45:36.787Z,100186.91
2022-07-26T00:48:07.380Z,100184.41
2022-07-26T00:50:35.750Z,100177.78
2022-07-26T00:53:03.806Z,100177.34
2022-07-26T00:55:31.793Z,100168.72
2022-07-26T00:58:01.269Z,100173.41
2022-07-26T01:00:29.688Z,100168.09
2022-07-26T01:02:58.614Z,100168.09
2022-07-26T01:05:28.642Z,100169.59
2022-07-26T01:07:56.649Z,100153.06
2022-07-26T01:10:24.706Z,100155.53
2022-07-26T01:12:52.607Z,100152.22
2022-07-26T01:15:20.653Z,100147.75
2022-07-26T01:17:48.556Z,100142.63
2022-07-26T01:20:17.099Z,100147.63
2022-07-26T01:22:46.448Z,100146.00
2022-07-26T01:25:14.376Z,100141.66
2022-07-26T01:27:42.295Z,100139.84
2022-07-26T01:30:12.664Z,100137.38
2022-07-26T01:32:40.796Z,100134.53
2022-07-26T01:35:09.956Z,100129.72
2022-07-26T01:37:37.894Z,100135.66
2022-07-26T01:40:08.820Z,100127.53
2022-07-26T01:42:40.807Z,100134.31
2022-07-26T01:45:09.806Z,100127.00
2022-07-26T01:47:37.955Z,100123.97
2022-07-26T01:50:07.575Z,100115.03
2022-07-26T01:52:35.739Z,100105.41
2022-07-26T01:55:03.615Z,100102.59
2022-07-26T01:57:32.930Z,100098.72
2022-07-26T02:00:00.862Z,100101.38
2022-07-26T02:02:29.723Z,100099.56
2022-07-26T02:05:01.338Z,100090.78
2022-07-26T02:07:31.264Z,100086.13
2022-07-26T02:10:01.720Z,100090.41
2022-07-26T02:12:29.882Z,100073.53
2022-07-26T02:14:59.693Z,100059.59
2022-07-26T02:17:27.643Z,100055.31
2022-07-26T02:19:55.495Z,100068.41
2022-07-26T02:22:23.404Z,100080.81
2022-07-26T02:24:52.129Z,100083.66
2022-07-26T02:27:21.666Z,100084.00
2022-07-26T02:29:49.671Z,100084.19
2022-07-26T02:32:19.071Z,100085.88
2022-07-26T02:34:46.933Z,100075.06
2022-07-26T02:37:14.832Z,100078.72
2022-07-26T02:39:42.768Z,100076.88
2022-07-26T02:42:10.701Z,100077.06
2022-07-26T02:44:38.643Z,100075.25
2022-07-26T02:47:06.652Z,100066.28
2022-07-26T02:49:35.869Z,100063.81
2022-07-26T02:52:03.976Z,100060.13
2022-07-26T02:54:31.875Z,100059.34
2022-07-26T02:56:59.745Z,100060.78
2022-07-26T02:59:27.663Z,100064.25
2022-07-26T03:01:55.674Z,100065.09
2022-07-26T03:04:23.790Z,100058.94
2022-07-26T03:06:53.124Z,100055.31
2022-07-26T03:09:21.065Z,100051.00
2022-07-26T03:11:49.075Z,100045.50
2022-07-26T03:14:16.990Z,100041.22
2022-07-26T03:16:44.929Z,100039.38
2022-07-26T03:19:12.863Z,100037.53
2022-07-26T03:21:40.778Z,100026.94
2022-07-26T03:24:10.551Z,100037.53
2022-07-26T03:26:38.703Z,100015.50
2022-07-26T03:29:07.184Z,100022.47
2022-07-26T03:31:36.543Z,100017.34
2022-07-26T03:34:04.841Z,100016.31
2022-07-26T03:36:33.164Z,100017.34
2022-07-26T03:39:01.243Z,100014.69
2022-07-26T03:41:31.717Z,100017.50
2022-07-26T03:43:59.389Z,100010.56
2022-07-26T03:46:27.540Z,100007.09
2022-07-26T03:48:55.832Z,100007.09
2022-07-26T03:51:23.775Z,99997.31
2022-07-26T03:53:51.774Z,99983.03
2022-07-26T03:56:31.999Z,99983.84
2022-07-26T03:59:03.764Z,99977.72
2022-07-26T04:01:32.317Z,99975.91
2022-07-26T04:04:00.389Z,99972.41
2022-07-26T04:06:29.672Z,99974.06
2022-07-26T04:08:57.985Z,99975.72
2022-07-26T04:11:26.758Z,99965.09
2022-07-26T04:13:57.168Z,99958.59
2022-07-26T04:16:26.638Z,99956.97
2022-07-26T04:18:55.477Z,99963.25
2022-07-26T04:21:23.454Z,99965.72
2022-07-26T04:23:51.947Z,99968.56
2022-07-26T04:26:21.161Z,99952.84
2022-07-26T04:28:49.753Z,99953.03
2022-07-26T04:31:18.224Z,99950.38
2022-07-26T04:33:47.556Z,99952.22
2022-07-26T04:36:15.508Z,99955.03
2022-07-26T04:38:43.479Z,99948.09
2022-07-26T04:41:11.411Z,99947.91
2022-07-26T04:43:39.272Z,99941.97
2022-07-26T04:46:07.612Z,99938.47
2022-07-26T04:48:35.724Z,99931.34
2022-07-26T04:51:05.114Z,99934.00
2022-07-26T04:53:33.162Z,99937.69
2022-07-26T04:56:01.061Z,99928.88
2022-07-26T04:58:29.037Z,99923.56
2022-07-26T05:01:09.652Z,99922.38
2022-07-26T05:03:38.290Z,99931.34
2022-07-26T05:06:08.415Z,99935.66
2022-07-26T05:08:36.299Z,99922.75
2022-07-26T05:11:04.731Z,99916.47
2022-07-26T05:13:32.967Z,99922.13
2022-07-26T05:16:01.858Z,99931.06
2022-07-26T05:18:45.663Z,99937.56
2022-07-26T05:21:19.600Z,99934.25
2022-07-26T05:23:47.894Z,99922.84
2022-07-26T05:26:15.991Z,99925.69
2022-07-26T05:28:44.007Z,99924.66
2022-07-26T05:31:12.036Z,99938.28
2022-07-26T05:33:40.017Z,99929.06
2022-07-26T05:36:08.220Z,99924.94
2022-07-26T05:38:37.750Z,99927.75
2022-07-26T05:41:06.187Z,99926.31
2022-07-26T05:43:41.055Z,99924.66
2022-07-26T05:46:10.830Z,99927.31
2022-07-26T05:48:39.045Z,99915.00
2022-07-26T05:51:07.017Z,99918.84
2022-07-26T05:53:35.131Z,99911.75
2022-07-26T05:56:05.064Z,99909.28
2022-07-26T05:58:33.017Z,99908.78
2022-07-26T06:01:00.959Z,99914.09
2022-07-26T06:03:30.154Z,99911.44
2022-07-26T06:05:59.380Z,99921.22
2022-07-26T06:08:28.025Z,99912.47
2022-07-26T06:10:56.118Z,99902.31
2022-07-26T06:13:25.448Z,99903.78
2022-07-26T06:15:53.802Z,99904.41
2022-07-26T06:18:21.877Z,99901.06
2022-07-26T06:20:50.673Z,99901.34
2022-07-26T06:23:34.220Z,99902.97
2022-07-26T06:26:03.724Z,99902.97
2022-07-26T06:28:33.482Z,99900.34
2022-07-26T06:31:01.582Z,99906.09
2022-07-26T06:33:29.610Z,99907.75
2022-07-26T06:35:57.655Z,99901.28
2022-07-26T06:38:25.576Z,99905.38
2022-07-26T06:40:53.588Z,99893.94
2022-07-26T06:43:21.820Z,99899.72
2022-07-26T06:45:51.322Z,99909.47
2022-07-26T06:48:19.370Z,99909.31
2022-07-26T06:50:47.851Z,99896.03
2022-07-26T06:53:15.734Z,99906.84
2022-07-26T06:55:43.932Z,99908.41
2022-07-26T06:58:11.877Z,99918.91
2022-07-26T07:00:39.826Z,99928.88
2022-07-26T07:03:09.230Z,99930.88
2022-07-26T07:05:37.143Z,99926.97
2022-07-26T07:08:07.383Z,99928.78
2022-07-26T07:10:35.416Z,99922.16
2022-07-26T07:13:04.029Z,99922.34
2022-07-26T07:15:31.897Z,99925.00
2022-07-26T07:17:59.900Z,99940.25
2022-07-26T07:20:29.577Z,99929.81
2022-07-26T07:22:57.548Z,99929.81
2022-07-26T07:25:30.723Z,99927.66
2022-07-26T07:27:59.212Z,99942.41
2022-07-26T07:30:28.017Z,99933.06
2022-07-26T07:32:56.841Z,99921.28
2022-07-26T07:35:25.246Z,99930.69
2022-07-26T07:38:01.976Z,99935.81
2022-07-26T07:40:30.241Z,99936.72
2022-07-26T07:42:58.878Z,99931.53
2022-07-26T07:45:26.927Z,99940.94
2022-07-26T07:47:55.133Z,99947.75
2022-07-26T07:50:23.264Z,99948.53
2022-07-26T07:52:56.491Z,99944.44
2022-07-26T07:55:46.695Z,99946.91
2022-07-26T07:58:15.743Z,99940.94
2022-07-26T08:00:45.251Z,99949.53
2022-07-26T08:03:18.594Z,99947.25
2022-07-26T08:05:49.323Z,99952.44
2022-07-26T08:08:18.232Z,99954.91
2022-07-26T08:10:49.090Z,99954.25
2022-07-26T08:13:21.503Z,99961.53
2022-07-26T08:15:49.974Z,99963.38
2022-07-26T08:18:18.079Z,99959.50
2022-07-26T08:20:49.688Z,99970.09
2022-07-26T08:23:17.753Z,99976.69
2022-07-26T08:25:56.195Z,99971.91
2022-07-26T08:31:14.967Z,99972.69
2022-07-26T08:33:46.114Z,99985.78
2022-07-26T08:36:15.117Z,99987.25
2022-07-26T08:38:43.030Z,99984.84
2022-07-26T08:41:12.383Z,99982.06
2022-07-26T08:43:51.212Z,99985.53
2022-07-26T08:46:24.837Z,99981.16
2022-07-26T08:48:53.709Z,99991.03
2022-07-26T08:51:24.015Z,99994.72
2022-07-26T08:53:58.032Z,99990.22
2022-07-26T08:56:28.621Z,99994.09
2022-07-26T08:58:56.591Z,99997.13
2022-07-26T09:01:24.702Z,99988.13
2022-07-26T09:03:52.702Z,99996.94
2022-07-26T09:06:22.955Z,100000.41
2022-07-26T09:09:11.777Z,99999.78
2022-07-26T09:11:41.286Z,100001.34
2022-07-26T09:14:09.288Z,100002.28
2022-07-26T09:16:39.890Z,100008.81
2022-07-26T09:19:19.632Z,100012.41
2022-07-26T09:21:47.720Z,100007.34
2022-07-26T09:24:31.378Z,100001.22
2022-07-26T09:27:01.862Z,99998.69
2022-07-26T09:29:30.193Z,100002.13
2022-07-26T09:32:13.111Z,100012.69
2022-07-26T09:34:51.971Z,100008.63
2022-07-26T09:37:34.114Z,100008.94
2022-07-26T09:40:03.783Z,100006.34
2022-07-26T09:42:33.110Z,100006.91
2022-07-26T09:45:01.342Z,100004.69
2022-07-26T09:47:38.829Z,100001.78
2022-07-26T09:50:15.078Z,100007.69
2022-07-26T09:52:58.905Z,99994.59
2022-07-26T09:55:30.459Z,99992.84
2022-07-26T09:58:06.495Z,99989.03
2022-07-26T10:00:35.043Z,99993.75
2022-07-26T10:03:03.112Z,99992.66
2022-07-26T10:05:31.227Z,99998.28
2022-07-26T10:07:59.890Z,99995.69
2022-07-26T10:10:30.213Z,99990.19
2022-07-26T10:12:59.380Z,99992.22
2022-07-26T10:15:40.984Z,99987.19
2022-07-26T10:18:16.733Z,99986.31
2022-07-26T10:20:51.594Z,99985.44
2022-07-26T10:23:40.596Z,99992.00
2022-07-26T10:26:15.132Z,99990.88
2022-07-26T10:28:44.126Z,99984.06
2022-07-26T10:31:31.384Z,99989.28
2022-07-26T10:34:01.817Z,99988.44
2022-07-26T10:36:35.942Z,99994.59
2022-07-26T10:39:10.227Z,99994.72
2022-07-26T10:41:45.030Z,99995.88
2022-07-26T10:44:31.584Z,99984.34
2022-07-26T10:47:16.665Z,99986.81
2022-07-26T10:49:54.590Z,99978.19
2022-07-26T10:52:24.840Z,99985.41
2022-07-26T10:55:18.089Z,99989.59
2022-07-26T10:57:49.027Z,99987.91
2022-07-26T11:00:20.313Z,99995.88
2022-07-26T11:02:55.934Z,99987.69
2022-07-26T11:05:28.884Z,99991.09
2022-07-26T11:08:00.121Z,99997.38
2022-07-26T11:10:30.988Z,99993.50
2022-07-26T11:13:08.409Z,100001.53
2022-07-26T11:15:37.867Z,99992.56
2022-07-26T11:18:12.825Z,100002.00
2022-07-26T11:20:41.572Z,100004.56
2022-07-26T11:23:37.270Z,100000.31
2022-07-26T11:26:14.173Z,99998.50
2022-07-26T11:28:54.361Z,100003.25
2022-07-26T11:31:50.899Z,99988.81
2022-07-26T11:34:19.820Z,99982.69
2022-07-26T11:36:48.949Z,99985.34
2022-07-26T11:39:21.629Z,99994.91
2022-07-26T11:41:49.810Z,99985.84
2022-07-26T11:44:19.080Z,99987.50
2022-07-26T11:46:48.634Z,99987.94
2022-07-26T11:49:19.880Z,99988.13
2022-07-26T11:51:56.413Z,99984.63
2022-07-26T11:54:25.841Z,99981.41
2022-07-26T11:56:55.431Z,99981.00
2022-07-26T11:59:24.900Z,99969.97
2022-07-26T12:01:53.870Z,99970.81
2022-07-26T12:04:25.485Z,99960.19
2022-07-26T12:06:54.815Z,99966.75
2022-07-26T12:09:30.948Z,99974.44
2022-07-26T12:11:59.167Z,99966.22
2022-07-26T12:14:27.603Z,99980.28
2022-07-26T12:16:55.687Z,99971.44
2022-07-26T12:19:27.992Z,99971.75
2022-07-26T12:21:58.598Z,99979.47
2022-07-26T12:24:44.939Z,99982.50
2022-07-26T12:27:15.681Z,99974.59
2022-07-26T12:29:45.936Z,99983.66
2022-07-26T12:32:16.184Z,99978.38
2022-07-26T12:34:57.088Z,99974.75
2022-07-26T12:37:33.680Z,99986.81
2022-07-26T12:40:10.709Z,99980.25
2022-07-26T12:42:40.876Z,99982.84
2022-07-26T12:45:11.461Z,99978.94
2022-07-26T12:47:41.215Z,99986.75
2022-07-26T12:50:12.898Z,99987.06
2022-07-26T12:52:41.139Z,99979.97
2022-07-26T12:55:14.034Z,99992.41
2022-07-26T12:57:46.186Z,99986.31
2022-07-26T13:00:17.611Z,99991.47
2022-07-26T13:02:47.387Z,99981.28
2022-07-26T13:05:16.984Z,99987.84
2022-07-26T13:07:45.056Z,99978.06
2022-07-26T13:10:32.532Z,99972.13
2022-07-26T13:13:01.523Z,99981.06
2022-07-26T13:15:36.512Z,99978.16
2022-07-26T13:18:06.624Z,99978.16
2022-07-26T13:20:37.164Z,99974.06
2022-07-26T13:23:04.968Z,99977.56
2022-07-26T13:25:38.283Z,99983.09
2022-07-26T13:28:08.206Z,99984.97
2022-07-26T13:30:38.056Z,99975.75
2022-07-26T13:33:06.032Z,99982.31
2022-07-26T13:35:35.331Z,99977.84
2022-07-26T13:38:03.419Z,99979.34
2022-07-26T13:40:32.076Z,99980.06
2022-07-26T13:43:00.290Z,99978.44
2022-07-26T13:45:29.142Z,99978.63
2022-07-26T13:47:57.600Z,99975.56
2022-07-26T13:50:27.594Z,99985.63
2022-07-26T13:52:57.538Z,99975.81
2022-07-26T13:55:26.232Z,99983.81
2022-07-26T13:57:55.948Z,99972.31
2022-07-26T14:00:24.768Z,99978.66
2022-07-26T14:02:52.716Z,99972.72
2022-07-26T14:05:21.638Z,99978.66
2022-07-26T14:07:49.732Z,99982.53
2022-07-26T14:10:19.959Z,99976.53
2022-07-26T14:12:47.956Z,99980.38
2022-07-26T14:15:21.465Z,99994.00
2022-07-26T14:17:49.941Z,99996.66
2022-07-26T14:20:18.321Z,99987.63
2022-07-26T14:22:46.365Z,99994.66
2022-07-26T14:25:14.726Z,99989.66
2022-07-26T14:27:44.036Z,99994.91
2022-07-26T14:30:13.216Z,99985.75
2022-07-26T14:32:41.358Z,99986.56
2022-07-26T14:35:10.337Z,99993.28
2022-07-26T14:37:44.931Z,99985.41
2022-07-26T14:40:14.831Z,99977.34
2022-07-26T14:42:44.537Z,99978.81
2022-07-26T14:45:13.605Z,99974.22
2022-07-26T14:47:41.841Z,99980.81
2022-07-26T14:50:11.251Z,99988.50
2022-07-26T14:52:40.558Z,99994.09
2022-07-26T14:55:09.422Z,100007.72
2022-07-26T14:57:39.023Z,100000.88
2022-07-26T15:00:11.526Z,99999.91
2022-07-26T15:02:40.930Z,100004.34
2022-07-26T15:05:09.600Z,100010.22
2022-07-26T15:07:37.606Z,100013.00
2022-07-26T15:10:06.497Z,100016.41
2022-07-26T15:12:34.385Z,100030.63
2022-07-26T15:15:02.319Z,100023.91
2022-07-26T15:17:31.621Z,100032.91
2022-07-26T15:19:59.592Z,100038.59
2022-07-26T15:22:27.683Z,100037.31
2022-07-26T15:24:55.608Z,100046.03
2022-07-26T15:27:23.530Z,100046.16
2022-07-26T15:29:51.419Z,100051.09
2022-07-26T15:32:21.500Z,100053.06
2022-07-26T15:34:50.913Z,100057.09
2022-07-26T15:37:19.036Z,100066.28
2022-07-26T15:39:46.928Z,100066.53
2022-07-26T15:42:15.758Z,100070.31
2022-07-26T15:44:44.183Z,100065.22
2022-07-26T15:47:15.449Z,100073.72
2022-07-26T15:50:00.226Z,100069.38
2022-07-26T15:52:28.203Z,100069.91
2022-07-26T15:54:56.112Z,100071.63
2022-07-26T15:57:24.023Z,100075.84
2022-07-26T15:59:52.001Z,100076.66
2022-07-26T16:02:19.961Z,100071.25
2022-07-26T16:04:47.964Z,100063.22
2022-07-26T16:07:17.966Z,100071.47
2022-07-26T16:09:45.893Z,100069.81
2022-07-26T16:12:13.825Z,100064.06
2022-07-26T16:14:41.767Z,100057.19
2022-07-26T16:17:09.968Z,100066.97
2022-07-26T16:19:37.845Z,100063.66
2022-07-26T16:22:05.982Z,100068.97
2022-07-26T16:24:37.128Z,100071.91
2022-07-26T16:27:05.559Z,100071.84
2022-07-26T16:29:33.468Z,100070.63
2022-07-26T16:32:01.522Z,100071.00
2022-07-26T16:34:30.239Z,100064.41
2022-07-26T16:36:58.161Z,100066.41
2022-07-26T16:39:26.035Z,100074.56
2022-07-26T16:41:55.344Z,100078.22
2022-07-26T16:44:24.137Z,100071.81
2022-07-26T16:46:52.484Z,100080.78
2022-07-26T16:49:20.525Z,100077.28
2022-07-26T16:51:48.436Z,100077.66
2022-07-26T16:54:16.482Z,100075.28
2022-07-26T16:56:44.389Z,100083.13
2022-07-26T16:59:13.746Z,100080.38
2022-07-26T17:01:41.955Z,100074.13
2022-07-26T17:04:09.919Z,100070.66
2022-07-26T17:06:37.833Z,100065.81
2022-07-26T17:09:05.732Z,100080.56
2022-07-26T17:11:33.678Z,100071.41
2022-07-26T17:14:01.813Z,100074.25
2022-07-26T17:16:31.211Z,100078.72
2022-07-26T17:18:59.202Z,100085.88
2022-07-26T17:21:27.134Z,100094.81
2022-07-26T17:23:55.122Z,100087.19
2022-07-26T17:26:23.113Z,100078.78
2022-07-26T17:28:51.071Z,100082.44
2022-07-26T17:31:19.012Z,100080.78
2022-07-26T17:33:48.338Z,100077.41
2022-07-26T17:36:24.664Z,100080.28
2022-07-26T17:38:52.815Z,100085.75
2022-07-26T17:41:23.234Z,100088.50
2022-07-26T17:44:02.956Z,100086.72
2022-07-26T17:46:32.600Z,100078.94
2022-07-26T17:49:02.246Z,100084.06
2022-07-26T17:51:30.262Z,100088.38
2022-07-26T17:53:58.163Z,100083.59
2022-07-26T17:56:26.064Z,100083.84
2022-07-26T17:58:53.975Z,100086.50
2022-07-26T18:01:21.925Z,100079.44
2022-07-26T18:03:49.987Z,100074.66
2022-07-26T18:06:19.305Z,100076.00
2022-07-26T18:08:47.376Z,100078.53
2022-07-26T18:11:15.295Z,100077.06
2022-07-26T18:13:43.200Z,100081.22
2022-07-26T18:16:11.137Z,100086.03
2022-07-26T18:18:39.020Z,100084.06
2022-07-26T18:21:06.923Z,100080.75
2022-07-26T18:23:36.191Z,100087.72
2022-07-26T18:26:04.840Z,100098.81
2022-07-26T18:28:32.758Z,100091.03
2022-07-26T18:31:00.693Z,100089.75
2022-07-26T18:33:31.585Z,100086.75
2022-07-26T18:36:01.028Z,100093.56
2022-07-26T18:38:29.138Z,100091.09
2022-07-26T18:40:58.425Z,100106.13
2022-07-26T18:43:26.408Z,100102.69
2022-07-26T18:45:54.396Z,100100.22
2022-07-26T18:48:22.411Z,100101.69
2022-07-26T18:50:52.625Z,100115.75
2022-07-26T18:53:21.211Z,100109.78
2022-07-26T18:55:49.474Z,100109.63
2022-07-26T18:58:19.144Z,100113.09
2022-07-26T19:00:52.855Z,100115.91
2022-07-26T19:03:20.786Z,100115.75
2022-07-26T19:05:49.093Z,100122.03
2022-07-26T19:08:17.063Z,100118.75
2022-07-26T19:10:45.076Z,100129.66
2022-07-26T19:13:12.972Z,100126.19
2022-07-26T19:15:42.342Z,100127.81
2022-07-26T19:18:12.030Z,100129.66
2022-07-26T19:20:39.968Z,100130.47
2022-07-26T19:23:10.322Z,100134.94
2022-07-26T19:25:38.721Z,100142.06
2022-07-26T19:28:07.256Z,100140.41
2022-07-26T19:30:37.511Z,100141.88
2022-07-26T19:33:06.800Z,100142.56
2022-07-26T19:35:34.707Z,100146.84
2022-07-26T19:38:02.622Z,100146.19
2022-07-26T19:40:30.863Z,100155.78
2022-07-26T19:42:58.787Z,100158.44
2022-07-26T19:45:26.739Z,100152.47
2022-07-26T19:47:54.667Z,100143.91
2022-07-26T19:50:24.376Z,100156.44
2022-07-26T19:52:52.320Z,100160.44
2022-07-26T19:55:20.232Z,100163.06
2022-07-26T19:57:48.172Z,100158.44
2022-07-26T20:00:16.872Z,100165.22
2022-07-26T20:02:45.182Z,100159.44
2022-07-26T20:05:13.873Z,100161.09
2022-07-26T20:07:43.451Z,100170.03
2022-07-26T20:10:11.764Z,100162.09
2022-07-26T20:12:39.691Z,100175.31
2022-07-26T20:15:09.245Z,100178.94
2022-07-26T20:17:39.806Z,100181.75
2022-07-26T20:20:08.729Z,100174.66
2022-07-26T20:22:36.887Z,100178.94
2022-07-26T20:25:07.754Z,100181.25
2022-07-26T20:27:35.708Z,100177.63
2022-07-26T20:30:04.340Z,100177.78
2022-07-26T20:32:32.271Z,100179.63
2022-07-26T20:35:00.187Z,100189.19
2022-07-26T20:37:28.091Z,100185.06
2022-07-26T20:39:55.955Z,100195.66
2022-07-26T20:42:25.903Z,100194.97
2022-07-26T20:44:55.719Z,100193.16
2022-07-26T20:47:23.638Z,100189.69
2022-07-26T20:49:51.548Z,100192.50
2022-07-26T20:52:19.509Z,100195.31
2022-07-26T20:54:47.404Z,100196.31
2022-07-26T20:57:15.487Z,100199.13
2022-07-26T20:59:44.764Z,100199.13
2022-07-26T21:02:12.702Z,100197.28
2022-07-26T21:04:40.688Z,100208.84
2022-07-26T21:07:08.619Z,100197.75
2022-07-26T21:09:36.627Z,100205.84
2022-07-26T21:12:05.007Z,100203.22
2022-07-26T21:14:32.923Z,100206.84
2022-07-26T21:17:02.383Z,100203.53
2022-07-26T21:19:30.799Z,100208.66
2022-07-26T21:22:00.385Z,100210.50
2022-07-26T21:24:28.374Z,100200.72
2022-07-26T21:26:56.340Z,100199.75
2022-07-26T21:29:24.468Z,100201.56
2022-07-26T21:31:52.346Z,100207.69
2022-07-26T21:34:21.681Z,100202.56
2022-07-26T21:36:49.694Z,100200.25
2022-07-26T21:39:17.560Z,100202.38
2022-07-26T21:41:45.708Z,100202.53
2022-07-26T21:44:14.152Z,100205.50
2022-07-26T21:46:42.099Z,100200.06
2022-07-26T21:49:10.357Z,100201.06
2022-07-26T21:51:39.852Z,100206.19
2022-07-26T21:54:07.941Z,100208.16
2022-07-26T21:56:36.087Z,100214.28
2022-07-26T21:59:04.018Z,100213.28
2022-07-26T22:01:31.951Z,100215.09
2022-07-26T22:03:59.859Z,100211.47
2022-07-26T22:06:27.798Z,100211.63
2022-07-26T22:08:57.163Z,100213.44
2022-07-26T22:11:25.111Z,100215.25
2022-07-26T22:13:53.428Z,100202.88
2022-07-26T22:16:21.507Z,100209.97
2022-07-26T22:18:49.416Z,100205.50
2022-07-26T22:21:17.365Z,100206.34
2022-07-26T22:23:45.584Z,100220.53
2022-07-26T22:26:15.989Z,100216.94
2022-07-26T22:28:44.033Z,100217.25
2022-07-26T22:31:12.066Z,100215.25
2022-07-26T22:33:39.986Z,100212.59
2022-07-26T22:36:09.967Z,100213.44
2022-07-26T22:38:37.876Z,100207.31
2022-07-26T22:41:05.788Z,100211.63
2022-07-26T22:43:35.082Z,100209.97
2022-07-26T22:46:03.038Z,100208.16
2022-07-26T22:48:31.204Z,100210.97
2022-07-26T22:50:59.299Z,100204.69
2022-07-26T22:53:27.212Z,100204.69
2022-07-26T22:55:55.104Z,100202.19
2022-07-26T22:58:23.029Z,100209.97
2022-07-26T23:00:52.394Z,100207.31
2022-07-26T23:03:21.708Z,100211.81
2022-07-26T23:05:52.451Z,100205.84
2022-07-26T23:11:08.839Z,100207.47
2022-07-26T23:13:36.769Z,100204.69
2022-07-26T23:16:06.466Z,100197.59
2022-07-26T23:18:35.368Z,100201.22
2022-07-26T23:21:04.280Z,100203.03
2022-07-26T23:23:32.413Z,100195.09
2022-07-26T23:26:01.105Z,100193.28
2022-07-26T23:28:36.210Z,100190.66
2022-07-26T23:31:09.126Z,100195.44
2022-07-26T23:33:51.508Z,100196.44
2022-07-26T23:36:21.621Z,100201.84
2022-07-26T23:38:49.562Z,100206.28
2022-07-26T23:41:17.485Z,100197.69
2022-07-26T23:43:45.503Z,100199.69
2022-07-26T23:46:14.957Z,100195.19
2022-07-26T23:48:43.024Z,100191.06
2022-07-26T23:51:11.150Z,100207.25
2022-07-26T23:53:39.131Z,100202.97
2022-07-26T23:56:07.182Z,100202.81
2022-07-26T23:58:35.084Z,100204.44
